グアム の空港の天気 - METARとTAF

グアム国際空港 ( PGUM / GUM ) - グアム ハガニア
飛行場実況気象(Metar)
観測時間01/19 20:54 ChST (01/19 10:54 UTC)
風向・風速東 6m/s
視程10km以上
天気現象
少しの雲 雲底高度 850m
全天の8割程度の雲 雲底高度 1160m
全天を覆う雲 雲底高度 1460m
気温26.7℃
湿度97%
気圧1012.8hPa
METARPGUM 191054Z 08011KT 10SM FEW028 BKN038 OVC048 27/26 A2993 RMK AO2 RAB0957E37 SLP128 P0000 T02670261 $
過去の天気等 Google飛行場航空写真 Wunderground天気予報

過去48時間のMETAR

飛行場予報(TAF)
発表時間: 1/19 20:06 ChST (1/19 10:06 UTC)
予報対象時間: 19日20時 ChST ~ 20日22時 ChST
風向・風速東北東 8m/s 瞬間風速 13m/s
視程10km以上
天気現象弱い雨
全天の4割程度の雲 雲底高度 430m
全天の8割程度の雲 雲底高度 910m
全天を覆う雲 雲底高度 3050m
19日20時 ChST ~ 19日23時 ChST に一時的に
視程4830m
天気現象
全天の4割程度の雲 雲底高度 370m
全天の8割程度の雲 雲底高度 610m
全天を覆う雲 雲底高度 1520m
20日1時 ChST から
風向・風速東北東 6m/s
視程10km以上
天気現象周辺でしゅう雨
全天の4割程度の雲 雲底高度 460m
全天の4割程度の雲 雲底高度 1220m
全天を覆う雲 雲底高度 3050m
PGUM 191006Z 1910/2012 06016G25KT 6SM -RA SCT014 BKN030 OVC100
TEMPO 1910/1913 3SM RA SCT012 BKN020 OVC050
FM191500 07012KT P6SM VCSH SCT015 SCT040 OVC100